sensor_id;sensor_type;location;lat;lon;timestamp;P1;durP1;ratioP1;P2;durP2;ratioP2
52124;SDS011;38119;52.710;6.398;2023-12-04T00:00:02;30.80;;;16.67;;
52124;SDS011;38119;52.710;6.398;2023-12-04T00:02:28;31.77;;;17.45;;
52124;SDS011;38119;52.710;6.398;2023-12-04T00:04:54;32.53;;;17.40;;
52124;SDS011;38119;52.710;6.398;2023-12-04T00:07:19;34.35;;;16.92;;
52124;SDS011;38119;52.710;6.398;2023-12-04T00:09:45;30.95;;;16.83;;
52124;SDS011;38119;52.710;6.398;2023-12-04T00:12:11;32.33;;;17.08;;
52124;SDS011;38119;52.710;6.398;2023-12-04T00:14:36;30.70;;;17.27;;
52124;SDS011;38119;52.710;6.398;2023-12-04T00:17:02;31.67;;;16.90;;
52124;SDS011;38119;52.710;6.398;2023-12-04T00:19:27;34.53;;;16.48;;
52124;SDS011;38119;52.710;6.398;2023-12-04T00:21:53;30.05;;;16.55;;
52124;SDS011;38119;52.710;6.398;2023-12-04T00:24:20;33.95;;;17.88;;
52124;SDS011;38119;52.710;6.398;2023-12-04T00:26:45;29.33;;;17.42;;
52124;SDS011;38119;52.710;6.398;2023-12-04T00:29:11;28.17;;;16.35;;
52124;SDS011;38119;52.710;6.398;2023-12-04T00:31:36;31.73;;;16.08;;
52124;SDS011;38119;52.710;6.398;2023-12-04T00:34:02;32.30;;;16.65;;
52124;SDS011;38119;52.710;6.398;2023-12-04T00:36:27;30.85;;;16.92;;
52124;SDS011;38119;52.710;6.398;2023-12-04T00:38:53;32.17;;;16.58;;
52124;SDS011;38119;52.710;6.398;2023-12-04T00:41:18;31.25;;;16.90;;
52124;SDS011;38119;52.710;6.398;2023-12-04T00:43:44;32.42;;;17.00;;
52124;SDS011;38119;52.710;6.398;2023-12-04T00:46:10;31.10;;;17.35;;
52124;SDS011;38119;52.710;6.398;2023-12-04T00:48:35;31.90;;;15.88;;
52124;SDS011;38119;52.710;6.398;2023-12-04T00:51:01;33.63;;;17.65;;
52124;SDS011;38119;52.710;6.398;2023-12-04T00:53:27;32.58;;;16.73;;
52124;SDS011;38119;52.710;6.398;2023-12-04T00:55:52;32.70;;;17.20;;
52124;SDS011;38119;52.710;6.398;2023-12-04T00:58:18;33.22;;;17.15;;
52124;SDS011;38119;52.710;6.398;2023-12-04T01:00:43;33.42;;;17.30;;
52124;SDS011;38119;52.710;6.398;2023-12-04T01:03:09;28.63;;;15.48;;
52124;SDS011;38119;52.710;6.398;2023-12-04T01:05:35;31.67;;;16.90;;
52124;SDS011;38119;52.710;6.398;2023-12-04T01:08:02;33.85;;;16.80;;
52124;SDS011;38119;52.710;6.398;2023-12-04T01:10:28;35.20;;;17.45;;
52124;SDS011;38119;52.710;6.398;2023-12-04T01:12:54;36.25;;;17.27;;
52124;SDS011;38119;52.710;6.398;2023-12-04T01:15:19;35.22;;;17.45;;
52124;SDS011;38119;52.710;6.398;2023-12-04T01:17:45;33.67;;;16.58;;
52124;SDS011;38119;52.710;6.398;2023-12-04T01:20:10;33.97;;;17.60;;
52124;SDS011;38119;52.710;6.398;2023-12-04T01:22:36;33.35;;;17.52;;
52124;SDS011;38119;52.710;6.398;2023-12-04T01:25:01;31.95;;;16.80;;
52124;SDS011;38119;52.710;6.398;2023-12-04T01:27:28;32.45;;;17.48;;
52124;SDS011;38119;52.710;6.398;2023-12-04T01:29:53;30.83;;;16.55;;
52124;SDS011;38119;52.710;6.398;2023-12-04T01:32:19;34.25;;;17.83;;
52124;SDS011;38119;52.710;6.398;2023-12-04T01:34:44;35.08;;;18.42;;
52124;SDS011;38119;52.710;6.398;2023-12-04T01:37:10;32.90;;;17.23;;
52124;SDS011;38119;52.710;6.398;2023-12-04T01:39:36;32.88;;;16.90;;
52124;SDS011;38119;52.710;6.398;2023-12-04T01:42:02;30.75;;;17.00;;
52124;SDS011;38119;52.710;6.398;2023-12-04T01:44:28;32.85;;;17.27;;
52124;SDS011;38119;52.710;6.398;2023-12-04T01:46:56;31.48;;;17.00;;
52124;SDS011;38119;52.710;6.398;2023-12-04T01:49:22;33.28;;;17.38;;
52124;SDS011;38119;52.710;6.398;2023-12-04T01:51:49;33.63;;;17.20;;
52124;SDS011;38119;52.710;6.398;2023-12-04T01:54:15;34.17;;;16.75;;
52124;SDS011;38119;52.710;6.398;2023-12-04T01:56:41;32.47;;;17.48;;
52124;SDS011;38119;52.710;6.398;2023-12-04T01:59:08;32.78;;;17.38;;
52124;SDS011;38119;52.710;6.398;2023-12-04T02:01:33;31.35;;;16.90;;
52124;SDS011;38119;52.710;6.398;2023-12-04T02:04:01;35.75;;;17.23;;
52124;SDS011;38119;52.710;6.398;2023-12-04T02:06:28;33.70;;;17.85;;
52124;SDS011;38119;52.710;6.398;2023-12-04T02:08:53;33.20;;;17.02;;
52124;SDS011;38119;52.710;6.398;2023-12-04T02:11:19;31.77;;;17.20;;
52124;SDS011;38119;52.710;6.398;2023-12-04T02:13:44;31.92;;;17.73;;
52124;SDS011;38119;52.710;6.398;2023-12-04T02:16:10;33.13;;;17.30;;
52124;SDS011;38119;52.710;6.398;2023-12-04T02:18:41;34.00;;;17.17;;
52124;SDS011;38119;52.710;6.398;2023-12-04T02:21:08;31.73;;;16.48;;
52124;SDS011;38119;52.710;6.398;2023-12-04T02:23:34;33.13;;;16.95;;
52124;SDS011;38119;52.710;6.398;2023-12-04T02:26:01;34.30;;;17.13;;
52124;SDS011;38119;52.710;6.398;2023-12-04T02:28:32;31.15;;;15.65;;
52124;SDS011;38119;52.710;6.398;2023-12-04T02:31:01;33.50;;;16.48;;
52124;SDS011;38119;52.710;6.398;2023-12-04T02:33:30;33.45;;;16.48;;
52124;SDS011;38119;52.710;6.398;2023-12-04T02:35:58;32.63;;;16.02;;
52124;SDS011;38119;52.710;6.398;2023-12-04T02:38:25;32.83;;;17.02;;
52124;SDS011;38119;52.710;6.398;2023-12-04T02:40:51;29.90;;;15.68;;
52124;SDS011;38119;52.710;6.398;2023-12-04T02:43:17;29.92;;;16.00;;
52124;SDS011;38119;52.710;6.398;2023-12-04T02:45:42;33.28;;;16.67;;
52124;SDS011;38119;52.710;6.398;2023-12-04T02:48:08;34.28;;;17.60;;
52124;SDS011;38119;52.710;6.398;2023-12-04T02:50:35;31.63;;;15.93;;
52124;SDS011;38119;52.710;6.398;2023-12-04T02:53:00;32.10;;;15.48;;
52124;SDS011;38119;52.710;6.398;2023-12-04T02:55:26;27.35;;;15.27;;
52124;SDS011;38119;52.710;6.398;2023-12-04T02:57:52;31.77;;;15.30;;
52124;SDS011;38119;52.710;6.398;2023-12-04T03:00:18;30.95;;;15.98;;
52124;SDS011;38119;52.710;6.398;2023-12-04T03:02:44;33.20;;;16.23;;
52124;SDS011;38119;52.710;6.398;2023-12-04T03:05:09;34.63;;;16.50;;
52124;SDS011;38119;52.710;6.398;2023-12-04T03:07:35;32.17;;;16.38;;
52124;SDS011;38119;52.710;6.398;2023-12-04T03:10:01;31.95;;;16.10;;
52124;SDS011;38119;52.710;6.398;2023-12-04T03:12:26;29.90;;;15.63;;
52124;SDS011;38119;52.710;6.398;2023-12-04T03:14:52;30.13;;;16.10;;
52124;SDS011;38119;52.710;6.398;2023-12-04T03:17:17;28.10;;;14.90;;
52124;SDS011;38119;52.710;6.398;2023-12-04T03:19:43;29.17;;;14.70;;
52124;SDS011;38119;52.710;6.398;2023-12-04T03:22:08;30.13;;;14.95;;
52124;SDS011;38119;52.710;6.398;2023-12-04T03:24:34;29.83;;;14.85;;
52124;SDS011;38119;52.710;6.398;2023-12-04T03:26:59;27.90;;;15.35;;
52124;SDS011;38119;52.710;6.398;2023-12-04T03:29:25;32.92;;;16.02;;
52124;SDS011;38119;52.710;6.398;2023-12-04T03:31:51;31.05;;;15.88;;
52124;SDS011;38119;52.710;6.398;2023-12-04T03:34:16;31.58;;;16.65;;
52124;SDS011;38119;52.710;6.398;2023-12-04T03:36:43;30.50;;;15.98;;
52124;SDS011;38119;52.710;6.398;2023-12-04T03:39:09;28.08;;;14.85;;
52124;SDS011;38119;52.710;6.398;2023-12-04T03:41:34;31.30;;;15.43;;
52124;SDS011;38119;52.710;6.398;2023-12-04T03:44:00;31.25;;;15.52;;
52124;SDS011;38119;52.710;6.398;2023-12-04T03:46:25;27.80;;;15.30;;
52124;SDS011;38119;52.710;6.398;2023-12-04T03:48:51;29.67;;;15.45;;
52124;SDS011;38119;52.710;6.398;2023-12-04T03:51:16;28.50;;;14.35;;
52124;SDS011;38119;52.710;6.398;2023-12-04T03:53:42;28.67;;;15.23;;
52124;SDS011;38119;52.710;6.398;2023-12-04T03:56:07;29.20;;;14.65;;
52124;SDS011;38119;52.710;6.398;2023-12-04T03:58:35;28.60;;;14.77;;
52124;SDS011;38119;52.710;6.398;2023-12-04T04:01:02;30.67;;;14.95;;
52124;SDS011;38119;52.710;6.398;2023-12-04T04:03:28;29.38;;;14.15;;
52124;SDS011;38119;52.710;6.398;2023-12-04T04:05:54;27.05;;;14.27;;
52124;SDS011;38119;52.710;6.398;2023-12-04T04:08:20;29.17;;;14.93;;
52124;SDS011;38119;52.710;6.398;2023-12-04T04:10:45;28.52;;;15.00;;
52124;SDS011;38119;52.710;6.398;2023-12-04T04:13:11;29.85;;;14.38;;
52124;SDS011;38119;52.710;6.398;2023-12-04T04:15:36;30.50;;;15.27;;
52124;SDS011;38119;52.710;6.398;2023-12-04T04:18:02;28.65;;;15.00;;
52124;SDS011;38119;52.710;6.398;2023-12-04T04:20:28;28.83;;;14.73;;
52124;SDS011;38119;52.710;6.398;2023-12-04T04:22:54;27.48;;;14.80;;
52124;SDS011;38119;52.710;6.398;2023-12-04T04:25:19;30.58;;;16.48;;
52124;SDS011;38119;52.710;6.398;2023-12-04T04:27:47;29.92;;;15.38;;
52124;SDS011;38119;52.710;6.398;2023-12-04T04:30:13;28.98;;;14.13;;
52124;SDS011;38119;52.710;6.398;2023-12-04T04:32:38;31.38;;;16.10;;
52124;SDS011;38119;52.710;6.398;2023-12-04T04:35:04;30.33;;;15.48;;
52124;SDS011;38119;52.710;6.398;2023-12-04T04:37:30;28.80;;;15.10;;
52124;SDS011;38119;52.710;6.398;2023-12-04T04:39:55;28.08;;;14.77;;
52124;SDS011;38119;52.710;6.398;2023-12-04T04:42:22;26.40;;;14.88;;
52124;SDS011;38119;52.710;6.398;2023-12-04T04:44:47;27.10;;;14.35;;
52124;SDS011;38119;52.710;6.398;2023-12-04T04:47:13;28.98;;;15.13;;
52124;SDS011;38119;52.710;6.398;2023-12-04T04:49:38;29.85;;;15.30;;
52124;SDS011;38119;52.710;6.398;2023-12-04T04:52:04;28.73;;;14.82;;
52124;SDS011;38119;52.710;6.398;2023-12-04T04:54:33;25.30;;;13.95;;
52124;SDS011;38119;52.710;6.398;2023-12-04T04:56:58;27.42;;;14.05;;
52124;SDS011;38119;52.710;6.398;2023-12-04T04:59:24;27.45;;;14.52;;
52124;SDS011;38119;52.710;6.398;2023-12-04T05:01:49;28.27;;;15.35;;
52124;SDS011;38119;52.710;6.398;2023-12-04T05:04:15;27.38;;;15.35;;
52124;SDS011;38119;52.710;6.398;2023-12-04T05:06:40;26.65;;;14.25;;
52124;SDS011;38119;52.710;6.398;2023-12-04T05:09:06;26.50;;;14.35;;
52124;SDS011;38119;52.710;6.398;2023-12-04T05:11:32;27.10;;;13.52;;
52124;SDS011;38119;52.710;6.398;2023-12-04T05:13:58;27.80;;;14.32;;
52124;SDS011;38119;52.710;6.398;2023-12-04T05:16:23;27.67;;;13.55;;
52124;SDS011;38119;52.710;6.398;2023-12-04T05:18:50;25.85;;;13.55;;
52124;SDS011;38119;52.710;6.398;2023-12-04T05:21:22;24.63;;;13.15;;
52124;SDS011;38119;52.710;6.398;2023-12-04T05:23:47;23.23;;;12.75;;
52124;SDS011;38119;52.710;6.398;2023-12-04T05:26:13;21.70;;;12.70;;
52124;SDS011;38119;52.710;6.398;2023-12-04T05:28:39;25.00;;;13.63;;
52124;SDS011;38119;52.710;6.398;2023-12-04T05:31:05;26.58;;;13.65;;
52124;SDS011;38119;52.710;6.398;2023-12-04T05:33:31;26.52;;;13.82;;
52124;SDS011;38119;52.710;6.398;2023-12-04T05:35:57;26.85;;;13.18;;
52124;SDS011;38119;52.710;6.398;2023-12-04T05:38:25;23.40;;;12.98;;
52124;SDS011;38119;52.710;6.398;2023-12-04T05:40:50;24.35;;;13.18;;
52124;SDS011;38119;52.710;6.398;2023-12-04T05:43:16;28.25;;;13.35;;
52124;SDS011;38119;52.710;6.398;2023-12-04T05:45:41;26.35;;;12.50;;
52124;SDS011;38119;52.710;6.398;2023-12-04T05:48:07;25.17;;;12.90;;
52124;SDS011;38119;52.710;6.398;2023-12-04T05:50:32;24.75;;;13.13;;
52124;SDS011;38119;52.710;6.398;2023-12-04T05:52:58;25.38;;;12.85;;
52124;SDS011;38119;52.710;6.398;2023-12-04T05:55:23;23.17;;;12.57;;
52124;SDS011;38119;52.710;6.398;2023-12-04T05:57:49;25.63;;;12.93;;
52124;SDS011;38119;52.710;6.398;2023-12-04T06:00:15;24.23;;;12.55;;
52124;SDS011;38119;52.710;6.398;2023-12-04T06:02:43;23.88;;;12.93;;
52124;SDS011;38119;52.710;6.398;2023-12-04T06:05:10;26.10;;;12.95;;
52124;SDS011;38119;52.710;6.398;2023-12-04T06:07:36;24.85;;;12.50;;
52124;SDS011;38119;52.710;6.398;2023-12-04T06:10:02;24.20;;;12.43;;
52124;SDS011;38119;52.710;6.398;2023-12-04T06:12:31;23.50;;;11.95;;
52124;SDS011;38119;52.710;6.398;2023-12-04T06:14:57;21.33;;;11.90;;
52124;SDS011;38119;52.710;6.398;2023-12-04T06:17:27;24.77;;;13.20;;
52124;SDS011;38119;52.710;6.398;2023-12-04T06:19:54;23.80;;;12.90;;
52124;SDS011;38119;52.710;6.398;2023-12-04T06:22:20;23.02;;;12.30;;
52124;SDS011;38119;52.710;6.398;2023-12-04T06:24:46;23.25;;;12.65;;
52124;SDS011;38119;52.710;6.398;2023-12-04T06:27:15;23.05;;;12.15;;
52124;SDS011;38119;52.710;6.398;2023-12-04T06:29:43;23.38;;;12.23;;
52124;SDS011;38119;52.710;6.398;2023-12-04T06:32:10;23.65;;;12.38;;
52124;SDS011;38119;52.710;6.398;2023-12-04T06:34:36;22.98;;;11.65;;
52124;SDS011;38119;52.710;6.398;2023-12-04T06:37:02;22.38;;;11.57;;
52124;SDS011;38119;52.710;6.398;2023-12-04T06:39:31;22.77;;;11.60;;
52124;SDS011;38119;52.710;6.398;2023-12-04T06:41:59;23.17;;;11.55;;
52124;SDS011;38119;52.710;6.398;2023-12-04T06:44:24;22.27;;;11.48;;
52124;SDS011;38119;52.710;6.398;2023-12-04T06:46:50;24.08;;;12.00;;
52124;SDS011;38119;52.710;6.398;2023-12-04T06:49:18;21.27;;;11.10;;
52124;SDS011;38119;52.710;6.398;2023-12-04T06:51:51;21.33;;;11.93;;
52124;SDS011;38119;52.710;6.398;2023-12-04T06:54:16;22.73;;;11.82;;
52124;SDS011;38119;52.710;6.398;2023-12-04T06:56:43;20.55;;;11.07;;
52124;SDS011;38119;52.710;6.398;2023-12-04T06:59:08;20.88;;;11.73;;
52124;SDS011;38119;52.710;6.398;2023-12-04T07:01:34;20.02;;;10.82;;
52124;SDS011;38119;52.710;6.398;2023-12-04T07:04:00;19.42;;;10.73;;
52124;SDS011;38119;52.710;6.398;2023-12-04T07:06:25;20.92;;;11.02;;
52124;SDS011;38119;52.710;6.398;2023-12-04T07:08:51;19.75;;;11.05;;
52124;SDS011;38119;52.710;6.398;2023-12-04T07:11:16;19.00;;;10.90;;
52124;SDS011;38119;52.710;6.398;2023-12-04T07:13:42;19.65;;;10.75;;
52124;SDS011;38119;52.710;6.398;2023-12-04T07:16:08;20.05;;;10.48;;
52124;SDS011;38119;52.710;6.398;2023-12-04T07:18:34;20.58;;;10.77;;
52124;SDS011;38119;52.710;6.398;2023-12-04T07:21:00;20.02;;;10.13;;
52124;SDS011;38119;52.710;6.398;2023-12-04T07:23:25;19.98;;;10.55;;
52124;SDS011;38119;52.710;6.398;2023-12-04T07:25:51;19.10;;;10.50;;
52124;SDS011;38119;52.710;6.398;2023-12-04T07:28:17;19.10;;;10.05;;
52124;SDS011;38119;52.710;6.398;2023-12-04T07:30:43;17.45;;;10.48;;
52124;SDS011;38119;52.710;6.398;2023-12-04T07:33:09;20.75;;;10.73;;
52124;SDS011;38119;52.710;6.398;2023-12-04T07:35:34;19.83;;;10.05;;
52124;SDS011;38119;52.710;6.398;2023-12-04T07:38:00;17.52;;;10.13;;
52124;SDS011;38119;52.710;6.398;2023-12-04T07:40:25;17.23;;;9.98;;
52124;SDS011;38119;52.710;6.398;2023-12-04T07:42:51;16.88;;;9.43;;
52124;SDS011;38119;52.710;6.398;2023-12-04T07:45:16;17.33;;;9.40;;
52124;SDS011;38119;52.710;6.398;2023-12-04T07:47:42;16.38;;;9.38;;
52124;SDS011;38119;52.710;6.398;2023-12-04T07:50:08;15.38;;;8.80;;
52124;SDS011;38119;52.710;6.398;2023-12-04T07:52:33;16.27;;;9.02;;
52124;SDS011;38119;52.710;6.398;2023-12-04T07:54:59;15.82;;;8.55;;
52124;SDS011;38119;52.710;6.398;2023-12-04T07:57:24;17.13;;;9.50;;
52124;SDS011;38119;52.710;6.398;2023-12-04T07:59:50;19.92;;;9.73;;
52124;SDS011;38119;52.710;6.398;2023-12-04T08:02:15;16.98;;;8.82;;
52124;SDS011;38119;52.710;6.398;2023-12-04T08:04:41;16.02;;;9.13;;
52124;SDS011;38119;52.710;6.398;2023-12-04T08:07:06;17.75;;;8.75;;
52124;SDS011;38119;52.710;6.398;2023-12-04T08:09:33;17.63;;;8.93;;
52124;SDS011;38119;52.710;6.398;2023-12-04T08:11:58;15.85;;;8.38;;
52124;SDS011;38119;52.710;6.398;2023-12-04T08:14:24;18.85;;;8.77;;
52124;SDS011;38119;52.710;6.398;2023-12-04T08:16:49;15.25;;;8.52;;
52124;SDS011;38119;52.710;6.398;2023-12-04T08:19:15;16.40;;;8.60;;
52124;SDS011;38119;52.710;6.398;2023-12-04T08:21:41;16.23;;;8.45;;
52124;SDS011;38119;52.710;6.398;2023-12-04T08:24:06;15.48;;;8.27;;
52124;SDS011;38119;52.710;6.398;2023-12-04T08:26:32;15.02;;;8.07;;
52124;SDS011;38119;52.710;6.398;2023-12-04T08:28:58;15.98;;;8.23;;
52124;SDS011;38119;52.710;6.398;2023-12-04T08:31:24;15.07;;;8.35;;
52124;SDS011;38119;52.710;6.398;2023-12-04T08:33:49;13.00;;;7.68;;
52124;SDS011;38119;52.710;6.398;2023-12-04T08:36:15;14.93;;;7.97;;
52124;SDS011;38119;52.710;6.398;2023-12-04T08:38:40;15.10;;;7.95;;
52124;SDS011;38119;52.710;6.398;2023-12-04T08:41:06;14.75;;;8.13;;
52124;SDS011;38119;52.710;6.398;2023-12-04T08:43:32;14.73;;;8.05;;
52124;SDS011;38119;52.710;6.398;2023-12-04T08:45:58;14.27;;;7.43;;
52124;SDS011;38119;52.710;6.398;2023-12-04T08:48:25;13.85;;;7.95;;
52124;SDS011;38119;52.710;6.398;2023-12-04T08:50:50;13.85;;;7.75;;
52124;SDS011;38119;52.710;6.398;2023-12-04T08:53:16;13.40;;;7.50;;
52124;SDS011;38119;52.710;6.398;2023-12-04T08:55:41;12.80;;;7.25;;
52124;SDS011;38119;52.710;6.398;2023-12-04T08:58:07;13.68;;;7.93;;
52124;SDS011;38119;52.710;6.398;2023-12-04T09:00:33;15.40;;;8.52;;
52124;SDS011;38119;52.710;6.398;2023-12-04T09:03:01;12.40;;;7.20;;
52124;SDS011;38119;52.710;6.398;2023-12-04T09:05:27;15.15;;;8.25;;
52124;SDS011;38119;52.710;6.398;2023-12-04T09:07:52;13.55;;;7.32;;
52124;SDS011;38119;52.710;6.398;2023-12-04T09:10:18;14.30;;;7.70;;
52124;SDS011;38119;52.710;6.398;2023-12-04T09:12:44;15.25;;;8.18;;
52124;SDS011;38119;52.710;6.398;2023-12-04T09:15:10;15.65;;;8.18;;
52124;SDS011;38119;52.710;6.398;2023-12-04T09:17:36;17.33;;;10.30;;
52124;SDS011;38119;52.710;6.398;2023-12-04T09:20:02;14.55;;;8.65;;
52124;SDS011;38119;52.710;6.398;2023-12-04T09:22:30;14.10;;;8.50;;
52124;SDS011;38119;52.710;6.398;2023-12-04T09:24:56;14.90;;;8.07;;
52124;SDS011;38119;52.710;6.398;2023-12-04T09:27:22;17.70;;;10.80;;
52124;SDS011;38119;52.710;6.398;2023-12-04T09:29:48;15.82;;;9.20;;
52124;SDS011;38119;52.710;6.398;2023-12-04T09:32:13;14.32;;;9.02;;
52124;SDS011;38119;52.710;6.398;2023-12-04T09:34:39;14.95;;;8.43;;
52124;SDS011;38119;52.710;6.398;2023-12-04T09:37:05;13.52;;;8.35;;
52124;SDS011;38119;52.710;6.398;2023-12-04T09:39:30;18.40;;;11.23;;
52124;SDS011;38119;52.710;6.398;2023-12-04T09:41:56;15.50;;;9.45;;
52124;SDS011;38119;52.710;6.398;2023-12-04T09:44:23;17.02;;;11.73;;
52124;SDS011;38119;52.710;6.398;2023-12-04T09:46:50;17.98;;;11.27;;
52124;SDS011;38119;52.710;6.398;2023-12-04T09:49:16;15.70;;;9.15;;
52124;SDS011;38119;52.710;6.398;2023-12-04T09:51:43;21.27;;;14.02;;
52124;SDS011;38119;52.710;6.398;2023-12-04T09:54:09;14.50;;;9.48;;
52124;SDS011;38119;52.710;6.398;2023-12-04T09:56:37;18.05;;;9.77;;
52124;SDS011;38119;52.710;6.398;2023-12-04T09:59:04;15.88;;;10.43;;
52124;SDS011;38119;52.710;6.398;2023-12-04T10:01:31;15.27;;;9.50;;
52124;SDS011;38119;52.710;6.398;2023-12-04T10:03:57;14.05;;;8.70;;
52124;SDS011;38119;52.710;6.398;2023-12-04T10:06:27;19.60;;;11.23;;
52124;SDS011;38119;52.710;6.398;2023-12-04T10:08:56;17.60;;;11.30;;
52124;SDS011;38119;52.710;6.398;2023-12-04T10:11:23;18.30;;;10.55;;
52124;SDS011;38119;52.710;6.398;2023-12-04T10:13:49;16.80;;;9.50;;
52124;SDS011;38119;52.710;6.398;2023-12-04T10:16:30;13.82;;;8.38;;
52124;SDS011;38119;52.710;6.398;2023-12-04T10:19:01;13.23;;;8.35;;
52124;SDS011;38119;52.710;6.398;2023-12-04T10:21:41;15.57;;;9.13;;
52124;SDS011;38119;52.710;6.398;2023-12-04T10:24:07;13.73;;;7.65;;
52124;SDS011;38119;52.710;6.398;2023-12-04T10:26:33;17.30;;;7.70;;
52124;SDS011;38119;52.710;6.398;2023-12-04T10:29:00;13.95;;;8.57;;
52124;SDS011;38119;52.710;6.398;2023-12-04T10:31:31;14.43;;;8.23;;
52124;SDS011;38119;52.710;6.398;2023-12-04T10:33:58;14.10;;;8.13;;
52124;SDS011;38119;52.710;6.398;2023-12-04T10:36:24;13.70;;;7.57;;
52124;SDS011;38119;52.710;6.398;2023-12-04T10:38:59;13.88;;;7.32;;
52124;SDS011;38119;52.710;6.398;2023-12-04T10:41:25;14.27;;;8.18;;
52124;SDS011;38119;52.710;6.398;2023-12-04T10:43:51;12.80;;;6.78;;
52124;SDS011;38119;52.710;6.398;2023-12-04T10:46:16;12.48;;;6.65;;
52124;SDS011;38119;52.710;6.398;2023-12-04T10:48:46;13.75;;;7.65;;
52124;SDS011;38119;52.710;6.398;2023-12-04T10:51:12;15.10;;;7.90;;
52124;SDS011;38119;52.710;6.398;2023-12-04T10:53:38;11.82;;;6.85;;
52124;SDS011;38119;52.710;6.398;2023-12-04T10:56:08;13.95;;;8.27;;
52124;SDS011;38119;52.710;6.398;2023-12-04T10:58:35;12.63;;;7.80;;
52124;SDS011;38119;52.710;6.398;2023-12-04T11:01:03;14.88;;;8.48;;
52124;SDS011;38119;52.710;6.398;2023-12-04T11:03:37;16.33;;;8.95;;
52124;SDS011;38119;52.710;6.398;2023-12-04T11:06:16;14.20;;;8.30;;
52124;SDS011;38119;52.710;6.398;2023-12-04T11:08:45;15.90;;;8.20;;
52124;SDS011;38119;52.710;6.398;2023-12-04T11:11:15;12.07;;;7.55;;
52124;SDS011;38119;52.710;6.398;2023-12-04T11:13:45;11.20;;;7.38;;
52124;SDS011;38119;52.710;6.398;2023-12-04T11:18:48;14.38;;;7.97;;
52124;SDS011;38119;52.710;6.398;2023-12-04T11:21:19;13.50;;;7.80;;
52124;SDS011;38119;52.710;6.398;2023-12-04T11:23:45;14.02;;;8.13;;
52124;SDS011;38119;52.710;6.398;2023-12-04T11:26:12;14.88;;;8.18;;
52124;SDS011;38119;52.710;6.398;2023-12-04T11:28:40;12.55;;;7.65;;
52124;SDS011;38119;52.710;6.398;2023-12-04T11:31:06;12.05;;;7.22;;
52124;SDS011;38119;52.710;6.398;2023-12-04T11:33:38;14.40;;;8.25;;
52124;SDS011;38119;52.710;6.398;2023-12-04T11:36:08;11.55;;;7.43;;
52124;SDS011;38119;52.710;6.398;2023-12-04T11:38:36;11.10;;;6.72;;
52124;SDS011;38119;52.710;6.398;2023-12-04T11:43:45;12.60;;;8.77;;
52124;SDS011;38119;52.710;6.398;2023-12-04T11:46:12;14.05;;;8.50;;
52124;SDS011;38119;52.710;6.398;2023-12-04T11:48:45;21.65;;;14.07;;
52124;SDS011;38119;52.710;6.398;2023-12-04T11:51:12;16.85;;;9.77;;
52124;SDS011;38119;52.710;6.398;2023-12-04T11:54:00;25.10;;;14.80;;
52124;SDS011;38119;52.710;6.398;2023-12-04T11:56:26;15.25;;;8.63;;
52124;SDS011;38119;52.710;6.398;2023-12-04T11:58:52;17.08;;;10.05;;
52124;SDS011;38119;52.710;6.398;2023-12-04T12:01:17;18.52;;;11.35;;
52124;SDS011;38119;52.710;6.398;2023-12-04T12:03:43;25.25;;;16.20;;
52124;SDS011;38119;52.710;6.398;2023-12-04T12:06:09;20.65;;;11.70;;
52124;SDS011;38119;52.710;6.398;2023-12-04T12:08:34;20.30;;;11.52;;
52124;SDS011;38119;52.710;6.398;2023-12-04T12:11:00;17.30;;;10.13;;
52124;SDS011;38119;52.710;6.398;2023-12-04T12:13:27;21.67;;;14.75;;
52124;SDS011;38119;52.710;6.398;2023-12-04T12:15:53;17.33;;;12.07;;
52124;SDS011;38119;52.710;6.398;2023-12-04T12:18:18;18.17;;;13.48;;
52124;SDS011;38119;52.710;6.398;2023-12-04T12:20:46;15.68;;;10.00;;
52124;SDS011;38119;52.710;6.398;2023-12-04T12:23:11;13.40;;;8.30;;
52124;SDS011;38119;52.710;6.398;2023-12-04T12:25:37;13.65;;;8.30;;
52124;SDS011;38119;52.710;6.398;2023-12-04T12:28:03;12.35;;;7.43;;
52124;SDS011;38119;52.710;6.398;2023-12-04T12:30:29;13.07;;;7.88;;
52124;SDS011;38119;52.710;6.398;2023-12-04T12:32:55;12.27;;;7.60;;
52124;SDS011;38119;52.710;6.398;2023-12-04T12:35:21;12.63;;;7.60;;
52124;SDS011;38119;52.710;6.398;2023-12-04T12:37:48;13.57;;;7.90;;
52124;SDS011;38119;52.710;6.398;2023-12-04T12:40:18;13.02;;;7.40;;
52124;SDS011;38119;52.710;6.398;2023-12-04T12:42:45;11.82;;;7.30;;
52124;SDS011;38119;52.710;6.398;2023-12-04T12:45:10;13.88;;;7.68;;
52124;SDS011;38119;52.710;6.398;2023-12-04T12:47:37;13.05;;;6.93;;
52124;SDS011;38119;52.710;6.398;2023-12-04T12:50:03;12.77;;;7.45;;
52124;SDS011;38119;52.710;6.398;2023-12-04T12:52:32;15.68;;;7.28;;
52124;SDS011;38119;52.710;6.398;2023-12-04T12:54:58;13.00;;;7.97;;
52124;SDS011;38119;52.710;6.398;2023-12-04T12:57:24;23.48;;;13.32;;
52124;SDS011;38119;52.710;6.398;2023-12-04T12:59:50;72.25;;;38.00;;
52124;SDS011;38119;52.710;6.398;2023-12-04T13:02:16;38.13;;;22.90;;
52124;SDS011;38119;52.710;6.398;2023-12-04T13:04:42;28.27;;;17.95;;
52124;SDS011;38119;52.710;6.398;2023-12-04T13:07:09;18.55;;;11.90;;
52124;SDS011;38119;52.710;6.398;2023-12-04T13:09:35;17.75;;;9.30;;
52124;SDS011;38119;52.710;6.398;2023-12-04T13:12:02;14.48;;;9.07;;
52124;SDS011;38119;52.710;6.398;2023-12-04T13:14:29;17.50;;;12.10;;
52124;SDS011;38119;52.710;6.398;2023-12-04T13:16:55;12.80;;;9.48;;
52124;SDS011;38119;52.710;6.398;2023-12-04T13:19:21;12.40;;;7.93;;
52124;SDS011;38119;52.710;6.398;2023-12-04T13:21:47;14.85;;;9.80;;
52124;SDS011;38119;52.710;6.398;2023-12-04T13:24:13;19.63;;;14.68;;
52124;SDS011;38119;52.710;6.398;2023-12-04T13:26:39;15.60;;;8.80;;
52124;SDS011;38119;52.710;6.398;2023-12-04T13:29:04;15.25;;;8.85;;
52124;SDS011;38119;52.710;6.398;2023-12-04T13:31:31;14.00;;;8.43;;
52124;SDS011;38119;52.710;6.398;2023-12-04T13:33:58;13.55;;;7.63;;
52124;SDS011;38119;52.710;6.398;2023-12-04T13:36:23;14.20;;;8.10;;
52124;SDS011;38119;52.710;6.398;2023-12-04T13:38:49;12.60;;;7.60;;
52124;SDS011;38119;52.710;6.398;2023-12-04T13:41:15;14.80;;;8.38;;
52124;SDS011;38119;52.710;6.398;2023-12-04T13:43:59;19.85;;;13.45;;
52124;SDS011;38119;52.710;6.398;2023-12-04T13:46:25;19.90;;;12.32;;
52124;SDS011;38119;52.710;6.398;2023-12-04T13:48:52;16.25;;;10.60;;
52124;SDS011;38119;52.710;6.398;2023-12-04T13:51:18;40.35;;;23.35;;
52124;SDS011;38119;52.710;6.398;2023-12-04T13:53:44;57.10;;;30.90;;
52124;SDS011;38119;52.710;6.398;2023-12-04T13:56:14;39.80;;;22.00;;
52124;SDS011;38119;52.710;6.398;2023-12-04T13:58:46;62.13;;;34.92;;
52124;SDS011;38119;52.710;6.398;2023-12-04T14:01:14;55.08;;;30.17;;
52124;SDS011;38119;52.710;6.398;2023-12-04T14:03:47;46.42;;;24.98;;
52124;SDS011;38119;52.710;6.398;2023-12-04T14:06:13;33.15;;;19.65;;
52124;SDS011;38119;52.710;6.398;2023-12-04T14:08:39;25.05;;;15.80;;
52124;SDS011;38119;52.710;6.398;2023-12-04T14:11:05;23.30;;;14.68;;
52124;SDS011;38119;52.710;6.398;2023-12-04T14:13:31;18.63;;;11.75;;
52124;SDS011;38119;52.710;6.398;2023-12-04T14:15:58;20.50;;;12.20;;
52124;SDS011;38119;52.710;6.398;2023-12-04T14:18:23;17.70;;;11.75;;
52124;SDS011;38119;52.710;6.398;2023-12-04T14:20:49;19.42;;;12.15;;
52124;SDS011;38119;52.710;6.398;2023-12-04T14:23:16;16.98;;;10.57;;
52124;SDS011;38119;52.710;6.398;2023-12-04T14:25:43;17.10;;;11.52;;